sensor_id;sensor_type;location;lat;lon;timestamp;P1;durP1;ratioP1;P2;durP2;ratioP2
13797;SDS011;6970;51.340;3.240;2024-03-25T00:02:26;11.27;;;4.97;;
13797;SDS011;6970;51.340;3.240;2024-03-25T00:04:52;10.55;;;4.30;;
13797;SDS011;6970;51.340;3.240;2024-03-25T00:07:22;11.88;;;5.20;;
13797;SDS011;6970;51.340;3.240;2024-03-25T00:09:54;15.10;;;5.07;;
13797;SDS011;6970;51.340;3.240;2024-03-25T00:12:23;12.35;;;5.15;;
13797;SDS011;6970;51.340;3.240;2024-03-25T00:14:50;15.48;;;6.40;;
13797;SDS011;6970;51.340;3.240;2024-03-25T00:17:16;13.50;;;5.72;;
13797;SDS011;6970;51.340;3.240;2024-03-25T00:19:42;12.70;;;4.80;;
13797;SDS011;6970;51.340;3.240;2024-03-25T00:22:21;12.85;;;4.93;;
13797;SDS011;6970;51.340;3.240;2024-03-25T00:24:53;12.18;;;5.72;;
13797;SDS011;6970;51.340;3.240;2024-03-25T00:27:21;12.27;;;5.93;;
13797;SDS011;6970;51.340;3.240;2024-03-25T00:29:48;12.90;;;5.65;;
13797;SDS011;6970;51.340;3.240;2024-03-25T00:32:17;14.68;;;6.35;;
13797;SDS011;6970;51.340;3.240;2024-03-25T00:34:45;15.45;;;5.65;;
13797;SDS011;6970;51.340;3.240;2024-03-25T00:37:13;12.13;;;5.95;;
13797;SDS011;6970;51.340;3.240;2024-03-25T00:39:39;15.10;;;7.57;;
13797;SDS011;6970;51.340;3.240;2024-03-25T00:42:11;13.88;;;6.85;;
13797;SDS011;6970;51.340;3.240;2024-03-25T00:47:07;12.48;;;6.50;;
13797;SDS011;6970;51.340;3.240;2024-03-25T00:49:35;12.07;;;6.53;;
13797;SDS011;6970;51.340;3.240;2024-03-25T00:54:33;12.48;;;6.15;;
13797;SDS011;6970;51.340;3.240;2024-03-25T00:57:00;13.38;;;6.20;;
13797;SDS011;6970;51.340;3.240;2024-03-25T00:59:27;17.40;;;7.28;;
13797;SDS011;6970;51.340;3.240;2024-03-25T01:01:54;16.50;;;6.65;;
13797;SDS011;6970;51.340;3.240;2024-03-25T01:04:23;13.30;;;6.93;;
13797;SDS011;6970;51.340;3.240;2024-03-25T01:09:21;14.07;;;6.05;;
13797;SDS011;6970;51.340;3.240;2024-03-25T01:11:53;11.10;;;6.97;;
13797;SDS011;6970;51.340;3.240;2024-03-25T01:21:48;13.98;;;7.22;;
13797;SDS011;6970;51.340;3.240;2024-03-25T01:24:15;13.13;;;7.45;;
13797;SDS011;6970;51.340;3.240;2024-03-25T01:29:11;14.10;;;7.60;;
13797;SDS011;6970;51.340;3.240;2024-03-25T01:31:38;12.15;;;6.60;;
13797;SDS011;6970;51.340;3.240;2024-03-25T01:34:07;16.27;;;7.22;;
13797;SDS011;6970;51.340;3.240;2024-03-25T01:39:02;15.90;;;7.95;;
13797;SDS011;6970;51.340;3.240;2024-03-25T01:44:00;15.15;;;7.80;;
13797;SDS011;6970;51.340;3.240;2024-03-25T01:48:57;16.27;;;8.00;;
13797;SDS011;6970;51.340;3.240;2024-03-25T01:51:25;15.38;;;7.38;;
13797;SDS011;6970;51.340;3.240;2024-03-25T01:53:53;13.95;;;7.15;;
13797;SDS011;6970;51.340;3.240;2024-03-25T01:56:23;13.38;;;7.72;;
13797;SDS011;6970;51.340;3.240;2024-03-25T01:58:50;14.80;;;7.55;;
13797;SDS011;6970;51.340;3.240;2024-03-25T02:01:17;16.35;;;7.32;;
13797;SDS011;6970;51.340;3.240;2024-03-25T02:03:47;11.32;;;6.63;;
13797;SDS011;6970;51.340;3.240;2024-03-25T02:06:15;11.80;;;6.25;;
13797;SDS011;6970;51.340;3.240;2024-03-25T02:11:14;12.35;;;6.90;;
13797;SDS011;6970;51.340;3.240;2024-03-25T02:13:42;11.75;;;5.88;;
13797;SDS011;6970;51.340;3.240;2024-03-25T02:18:40;12.95;;;6.50;;
13797;SDS011;6970;51.340;3.240;2024-03-25T02:21:10;14.88;;;7.45;;
13797;SDS011;6970;51.340;3.240;2024-03-25T02:23:37;12.82;;;6.10;;
13797;SDS011;6970;51.340;3.240;2024-03-25T02:26:07;12.98;;;7.10;;
13797;SDS011;6970;51.340;3.240;2024-03-25T02:28:39;10.55;;;6.03;;
13797;SDS011;6970;51.340;3.240;2024-03-25T02:31:05;13.38;;;6.40;;
13797;SDS011;6970;51.340;3.240;2024-03-25T02:33:31;12.05;;;6.45;;
13797;SDS011;6970;51.340;3.240;2024-03-25T02:36:01;12.15;;;7.20;;
13797;SDS011;6970;51.340;3.240;2024-03-25T02:38:30;13.90;;;6.65;;
13797;SDS011;6970;51.340;3.240;2024-03-25T02:40:59;11.73;;;6.38;;
13797;SDS011;6970;51.340;3.240;2024-03-25T02:43:32;13.65;;;7.05;;
13797;SDS011;6970;51.340;3.240;2024-03-25T02:46:01;10.70;;;5.90;;
13797;SDS011;6970;51.340;3.240;2024-03-25T02:48:27;12.10;;;6.88;;
13797;SDS011;6970;51.340;3.240;2024-03-25T02:50:54;12.35;;;6.20;;
13797;SDS011;6970;51.340;3.240;2024-03-25T02:53:22;13.50;;;6.22;;
13797;SDS011;6970;51.340;3.240;2024-03-25T02:55:51;12.73;;;6.70;;
13797;SDS011;6970;51.340;3.240;2024-03-25T02:58:18;13.63;;;6.32;;
13797;SDS011;6970;51.340;3.240;2024-03-25T03:00:44;13.13;;;7.18;;
13797;SDS011;6970;51.340;3.240;2024-03-25T03:03:13;14.48;;;6.80;;
13797;SDS011;6970;51.340;3.240;2024-03-25T03:05:39;12.57;;;6.25;;
13797;SDS011;6970;51.340;3.240;2024-03-25T03:13:04;13.02;;;6.50;;
13797;SDS011;6970;51.340;3.240;2024-03-25T03:18:00;14.90;;;6.43;;
13797;SDS011;6970;51.340;3.240;2024-03-25T03:22:55;12.32;;;6.15;;
13797;SDS011;6970;51.340;3.240;2024-03-25T03:25:21;13.23;;;6.53;;
13797;SDS011;6970;51.340;3.240;2024-03-25T03:27:47;13.90;;;6.43;;
13797;SDS011;6970;51.340;3.240;2024-03-25T03:30:13;13.38;;;6.95;;
13797;SDS011;6970;51.340;3.240;2024-03-25T03:32:39;15.15;;;6.53;;
13797;SDS011;6970;51.340;3.240;2024-03-25T03:35:06;14.52;;;6.72;;
13797;SDS011;6970;51.340;3.240;2024-03-25T03:37:32;13.77;;;7.00;;
13797;SDS011;6970;51.340;3.240;2024-03-25T03:39:58;13.75;;;6.60;;
13797;SDS011;6970;51.340;3.240;2024-03-25T03:42:24;14.95;;;6.40;;
13797;SDS011;6970;51.340;3.240;2024-03-25T03:44:53;14.10;;;6.60;;
13797;SDS011;6970;51.340;3.240;2024-03-25T03:47:22;15.38;;;7.07;;
13797;SDS011;6970;51.340;3.240;2024-03-25T03:49:49;13.73;;;7.68;;
13797;SDS011;6970;51.340;3.240;2024-03-25T03:52:17;13.43;;;6.53;;
13797;SDS011;6970;51.340;3.240;2024-03-25T03:57:12;15.45;;;6.50;;
13797;SDS011;6970;51.340;3.240;2024-03-25T03:59:39;14.70;;;6.38;;
13797;SDS011;6970;51.340;3.240;2024-03-25T04:04:37;13.05;;;7.10;;
13797;SDS011;6970;51.340;3.240;2024-03-25T04:07:04;14.88;;;6.15;;
13797;SDS011;6970;51.340;3.240;2024-03-25T04:09:32;14.80;;;6.43;;
13797;SDS011;6970;51.340;3.240;2024-03-25T04:11:58;13.23;;;6.55;;
13797;SDS011;6970;51.340;3.240;2024-03-25T04:14:41;15.13;;;7.38;;
13797;SDS011;6970;51.340;3.240;2024-03-25T04:17:07;18.30;;;8.25;;
13797;SDS011;6970;51.340;3.240;2024-03-25T04:19:36;15.23;;;7.40;;
13797;SDS011;6970;51.340;3.240;2024-03-25T04:22:03;18.63;;;7.25;;
13797;SDS011;6970;51.340;3.240;2024-03-25T04:24:32;17.48;;;7.68;;
13797;SDS011;6970;51.340;3.240;2024-03-25T04:27:00;16.00;;;7.72;;
13797;SDS011;6970;51.340;3.240;2024-03-25T04:29:30;13.90;;;7.43;;
13797;SDS011;6970;51.340;3.240;2024-03-25T04:31:56;16.77;;;7.28;;
13797;SDS011;6970;51.340;3.240;2024-03-25T04:34:24;17.60;;;7.38;;
13797;SDS011;6970;51.340;3.240;2024-03-25T04:36:50;14.55;;;7.05;;
13797;SDS011;6970;51.340;3.240;2024-03-25T04:39:18;16.27;;;7.60;;
13797;SDS011;6970;51.340;3.240;2024-03-25T04:41:47;16.27;;;7.10;;
13797;SDS011;6970;51.340;3.240;2024-03-25T04:44:14;18.08;;;9.07;;
13797;SDS011;6970;51.340;3.240;2024-03-25T04:46:40;18.83;;;7.88;;
13797;SDS011;6970;51.340;3.240;2024-03-25T04:49:08;15.60;;;7.50;;
13797;SDS011;6970;51.340;3.240;2024-03-25T04:51:35;19.05;;;8.40;;
13797;SDS011;6970;51.340;3.240;2024-03-25T04:54:02;15.30;;;8.00;;
13797;SDS011;6970;51.340;3.240;2024-03-25T04:56:30;18.67;;;7.50;;
13797;SDS011;6970;51.340;3.240;2024-03-25T04:58:59;22.67;;;9.07;;
13797;SDS011;6970;51.340;3.240;2024-03-25T05:01:27;19.73;;;8.27;;
13797;SDS011;6970;51.340;3.240;2024-03-25T05:03:59;25.92;;;8.38;;
13797;SDS011;6970;51.340;3.240;2024-03-25T05:06:25;18.35;;;7.68;;
13797;SDS011;6970;51.340;3.240;2024-03-25T05:08:51;21.77;;;7.93;;
13797;SDS011;6970;51.340;3.240;2024-03-25T05:13:48;23.30;;;8.48;;
13797;SDS011;6970;51.340;3.240;2024-03-25T05:16:21;38.13;;;8.45;;
13797;SDS011;6970;51.340;3.240;2024-03-25T05:18:47;65.75;;;9.13;;
13797;SDS011;6970;51.340;3.240;2024-03-25T05:21:15;41.00;;;8.23;;
13797;SDS011;6970;51.340;3.240;2024-03-25T05:23:41;13.05;;;7.03;;
13797;SDS011;6970;51.340;3.240;2024-03-25T05:26:13;33.97;;;8.02;;
13797;SDS011;6970;51.340;3.240;2024-03-25T05:33:39;49.42;;;8.20;;
13797;SDS011;6970;51.340;3.240;2024-03-25T05:36:05;53.38;;;9.63;;
13797;SDS011;6970;51.340;3.240;2024-03-25T05:38:32;31.00;;;7.32;;
13797;SDS011;6970;51.340;3.240;2024-03-25T05:43:27;28.88;;;8.18;;
13797;SDS011;6970;51.340;3.240;2024-03-25T05:45:55;29.02;;;7.85;;
13797;SDS011;6970;51.340;3.240;2024-03-25T05:50:58;39.40;;;7.55;;
13797;SDS011;6970;51.340;3.240;2024-03-25T05:55:57;15.88;;;7.43;;
13797;SDS011;6970;51.340;3.240;2024-03-25T06:00:58;25.20;;;8.02;;
13797;SDS011;6970;51.340;3.240;2024-03-25T06:03:27;20.65;;;7.45;;
13797;SDS011;6970;51.340;3.240;2024-03-25T06:05:54;30.35;;;8.88;;
13797;SDS011;6970;51.340;3.240;2024-03-25T06:08:22;27.15;;;8.88;;
13797;SDS011;6970;51.340;3.240;2024-03-25T06:10:52;19.27;;;7.88;;
13797;SDS011;6970;51.340;3.240;2024-03-25T06:13:20;21.77;;;7.78;;
13797;SDS011;6970;51.340;3.240;2024-03-25T06:15:47;20.20;;;7.43;;
13797;SDS011;6970;51.340;3.240;2024-03-25T06:18:15;21.27;;;9.13;;
13797;SDS011;6970;51.340;3.240;2024-03-25T06:20:45;27.40;;;9.35;;
13797;SDS011;6970;51.340;3.240;2024-03-25T06:25:55;33.88;;;9.07;;
13797;SDS011;6970;51.340;3.240;2024-03-25T06:28:21;23.38;;;8.80;;
13797;SDS011;6970;51.340;3.240;2024-03-25T06:30:50;26.00;;;7.72;;
13797;SDS011;6970;51.340;3.240;2024-03-25T06:33:36;28.95;;;8.25;;
13797;SDS011;6970;51.340;3.240;2024-03-25T06:36:21;30.05;;;9.38;;
13797;SDS011;6970;51.340;3.240;2024-03-25T06:38:47;21.00;;;8.23;;
13797;SDS011;6970;51.340;3.240;2024-03-25T06:41:14;46.53;;;10.43;;
13797;SDS011;6970;51.340;3.240;2024-03-25T06:43:43;42.85;;;10.88;;
13797;SDS011;6970;51.340;3.240;2024-03-25T06:48:40;21.92;;;9.68;;
13797;SDS011;6970;51.340;3.240;2024-03-25T06:51:06;38.33;;;11.02;;
13797;SDS011;6970;51.340;3.240;2024-03-25T07:01:07;45.75;;;10.25;;
13797;SDS011;6970;51.340;3.240;2024-03-25T07:03:35;29.90;;;8.70;;
13797;SDS011;6970;51.340;3.240;2024-03-25T07:08:32;45.00;;;10.07;;
13797;SDS011;6970;51.340;3.240;2024-03-25T07:11:00;56.60;;;8.32;;
13797;SDS011;6970;51.340;3.240;2024-03-25T07:13:33;40.85;;;9.52;;
13797;SDS011;6970;51.340;3.240;2024-03-25T07:15:59;25.67;;;7.70;;
13797;SDS011;6970;51.340;3.240;2024-03-25T07:18:25;54.42;;;9.25;;
13797;SDS011;6970;51.340;3.240;2024-03-25T07:20:51;21.52;;;8.05;;
13797;SDS011;6970;51.340;3.240;2024-03-25T07:23:17;80.13;;;9.95;;
13797;SDS011;6970;51.340;3.240;2024-03-25T07:25:43;50.60;;;8.82;;
13797;SDS011;6970;51.340;3.240;2024-03-25T07:28:11;31.85;;;8.45;;
13797;SDS011;6970;51.340;3.240;2024-03-25T07:30:41;55.33;;;9.65;;
13797;SDS011;6970;51.340;3.240;2024-03-25T07:33:09;45.97;;;11.25;;
13797;SDS011;6970;51.340;3.240;2024-03-25T07:35:35;31.95;;;8.55;;
13797;SDS011;6970;51.340;3.240;2024-03-25T07:38:02;40.92;;;8.88;;
13797;SDS011;6970;51.340;3.240;2024-03-25T07:40:30;28.27;;;9.80;;
13797;SDS011;6970;51.340;3.240;2024-03-25T07:42:56;38.42;;;8.68;;
13797;SDS011;6970;51.340;3.240;2024-03-25T07:45:25;35.33;;;9.50;;
13797;SDS011;6970;51.340;3.240;2024-03-25T07:47:52;16.33;;;8.88;;
13797;SDS011;6970;51.340;3.240;2024-03-25T07:50:22;44.92;;;10.00;;
13797;SDS011;6970;51.340;3.240;2024-03-25T07:52:50;21.38;;;8.40;;
13797;SDS011;6970;51.340;3.240;2024-03-25T07:55:17;34.80;;;11.02;;
13797;SDS011;6970;51.340;3.240;2024-03-25T07:57:46;23.00;;;8.93;;
13797;SDS011;6970;51.340;3.240;2024-03-25T08:00:12;25.77;;;10.20;;
13797;SDS011;6970;51.340;3.240;2024-03-25T08:05:09;65.82;;;11.60;;
13797;SDS011;6970;51.340;3.240;2024-03-25T08:07:41;31.02;;;8.93;;
13797;SDS011;6970;51.340;3.240;2024-03-25T08:10:08;24.17;;;9.27;;
13797;SDS011;6970;51.340;3.240;2024-03-25T08:15:05;41.47;;;9.68;;
13797;SDS011;6970;51.340;3.240;2024-03-25T08:17:33;37.30;;;9.07;;
13797;SDS011;6970;51.340;3.240;2024-03-25T08:20:00;27.17;;;9.77;;
13797;SDS011;6970;51.340;3.240;2024-03-25T08:22:27;27.77;;;8.70;;
13797;SDS011;6970;51.340;3.240;2024-03-25T08:24:55;25.77;;;9.45;;
13797;SDS011;6970;51.340;3.240;2024-03-25T08:27:23;32.45;;;10.10;;
13797;SDS011;6970;51.340;3.240;2024-03-25T08:29:49;26.83;;;8.93;;
13797;SDS011;6970;51.340;3.240;2024-03-25T08:32:21;34.85;;;9.85;;
13797;SDS011;6970;51.340;3.240;2024-03-25T08:34:47;32.40;;;10.07;;
13797;SDS011;6970;51.340;3.240;2024-03-25T08:37:14;26.80;;;9.55;;
13797;SDS011;6970;51.340;3.240;2024-03-25T08:42:13;25.05;;;9.65;;
13797;SDS011;6970;51.340;3.240;2024-03-25T08:44:39;36.33;;;10.00;;
13797;SDS011;6970;51.340;3.240;2024-03-25T08:47:05;23.00;;;9.80;;
13797;SDS011;6970;51.340;3.240;2024-03-25T08:49:31;28.35;;;10.18;;
13797;SDS011;6970;51.340;3.240;2024-03-25T08:52:00;29.65;;;10.07;;
13797;SDS011;6970;51.340;3.240;2024-03-25T08:54:27;31.23;;;10.68;;
13797;SDS011;6970;51.340;3.240;2024-03-25T08:59:24;31.05;;;10.95;;
13797;SDS011;6970;51.340;3.240;2024-03-25T09:04:22;28.20;;;11.73;;
13797;SDS011;6970;51.340;3.240;2024-03-25T09:06:48;33.60;;;12.15;;
13797;SDS011;6970;51.340;3.240;2024-03-25T09:09:14;30.17;;;11.13;;
13797;SDS011;6970;51.340;3.240;2024-03-25T09:16:58;35.67;;;11.45;;
13797;SDS011;6970;51.340;3.240;2024-03-25T09:21:54;30.35;;;9.45;;
13797;SDS011;6970;51.340;3.240;2024-03-25T09:24:22;29.13;;;10.57;;
13797;SDS011;6970;51.340;3.240;2024-03-25T09:26:53;23.27;;;9.70;;
13797;SDS011;6970;51.340;3.240;2024-03-25T09:29:21;23.45;;;9.98;;
13797;SDS011;6970;51.340;3.240;2024-03-25T09:34:17;24.30;;;8.80;;
13797;SDS011;6970;51.340;3.240;2024-03-25T09:36:45;23.92;;;9.48;;
13797;SDS011;6970;51.340;3.240;2024-03-25T09:39:11;21.90;;;9.23;;
13797;SDS011;6970;51.340;3.240;2024-03-25T09:41:39;23.85;;;9.35;;
13797;SDS011;6970;51.340;3.240;2024-03-25T09:44:10;28.85;;;9.75;;
13797;SDS011;6970;51.340;3.240;2024-03-25T09:46:37;24.90;;;9.75;;
13797;SDS011;6970;51.340;3.240;2024-03-25T09:49:04;22.30;;;10.15;;
13797;SDS011;6970;51.340;3.240;2024-03-25T09:51:31;23.48;;;9.52;;
13797;SDS011;6970;51.340;3.240;2024-03-25T09:53:57;25.88;;;10.25;;
13797;SDS011;6970;51.340;3.240;2024-03-25T09:56:26;24.10;;;10.50;;
13797;SDS011;6970;51.340;3.240;2024-03-25T10:03:52;19.80;;;8.90;;
13797;SDS011;6970;51.340;3.240;2024-03-25T10:06:18;22.25;;;9.40;;
13797;SDS011;6970;51.340;3.240;2024-03-25T10:08:44;22.85;;;9.00;;
13797;SDS011;6970;51.340;3.240;2024-03-25T10:11:12;28.63;;;9.35;;
13797;SDS011;6970;51.340;3.240;2024-03-25T10:13:40;23.42;;;9.73;;
13797;SDS011;6970;51.340;3.240;2024-03-25T10:16:07;22.33;;;9.80;;
13797;SDS011;6970;51.340;3.240;2024-03-25T10:18:35;23.40;;;8.70;;
13797;SDS011;6970;51.340;3.240;2024-03-25T10:21:05;25.77;;;9.95;;
13797;SDS011;6970;51.340;3.240;2024-03-25T10:23:35;21.10;;;7.85;;
13797;SDS011;6970;51.340;3.240;2024-03-25T10:26:08;20.10;;;7.55;;
13797;SDS011;6970;51.340;3.240;2024-03-25T10:31:05;21.50;;;8.27;;
13797;SDS011;6970;51.340;3.240;2024-03-25T10:33:32;22.23;;;8.57;;
13797;SDS011;6970;51.340;3.240;2024-03-25T10:36:01;24.88;;;8.88;;
13797;SDS011;6970;51.340;3.240;2024-03-25T10:38:30;19.63;;;7.78;;
13797;SDS011;6970;51.340;3.240;2024-03-25T10:43:30;17.88;;;6.97;;
13797;SDS011;6970;51.340;3.240;2024-03-25T10:45:58;19.50;;;7.40;;
13797;SDS011;6970;51.340;3.240;2024-03-25T10:48:32;19.98;;;8.38;;
13797;SDS011;6970;51.340;3.240;2024-03-25T10:53:37;20.85;;;7.43;;
13797;SDS011;6970;51.340;3.240;2024-03-25T10:56:10;16.65;;;6.72;;
13797;SDS011;6970;51.340;3.240;2024-03-25T10:58:41;23.25;;;8.80;;
13797;SDS011;6970;51.340;3.240;2024-03-25T11:01:12;25.05;;;8.35;;
13797;SDS011;6970;51.340;3.240;2024-03-25T11:03:38;19.52;;;7.38;;
13797;SDS011;6970;51.340;3.240;2024-03-25T11:06:05;19.20;;;7.72;;
13797;SDS011;6970;51.340;3.240;2024-03-25T11:08:32;19.52;;;9.40;;
13797;SDS011;6970;51.340;3.240;2024-03-25T11:13:27;23.40;;;10.93;;
13797;SDS011;6970;51.340;3.240;2024-03-25T11:18:25;18.40;;;9.93;;
13797;SDS011;6970;51.340;3.240;2024-03-25T11:21:03;17.60;;;8.95;;
13797;SDS011;6970;51.340;3.240;2024-03-25T11:23:42;20.15;;;9.32;;
13797;SDS011;6970;51.340;3.240;2024-03-25T11:26:24;17.30;;;8.70;;
13797;SDS011;6970;51.340;3.240;2024-03-25T11:28:54;13.98;;;7.75;;
13797;SDS011;6970;51.340;3.240;2024-03-25T11:31:22;16.23;;;7.18;;
13797;SDS011;6970;51.340;3.240;2024-03-25T11:33:51;16.33;;;7.38;;
13797;SDS011;6970;51.340;3.240;2024-03-25T11:39:04;15.10;;;6.72;;
13797;SDS011;6970;51.340;3.240;2024-03-25T11:41:35;14.82;;;6.88;;
13797;SDS011;6970;51.340;3.240;2024-03-25T11:44:09;14.88;;;6.63;;
13797;SDS011;6970;51.340;3.240;2024-03-25T11:46:38;14.15;;;6.60;;
13797;SDS011;6970;51.340;3.240;2024-03-25T11:49:11;16.63;;;7.25;;
13797;SDS011;6970;51.340;3.240;2024-03-25T11:51:42;12.02;;;6.10;;
13797;SDS011;6970;51.340;3.240;2024-03-25T11:56:42;12.68;;;6.57;;
13797;SDS011;6970;51.340;3.240;2024-03-25T11:59:15;12.70;;;6.07;;
13797;SDS011;6970;51.340;3.240;2024-03-25T12:01:41;13.38;;;5.68;;
13797;SDS011;6970;51.340;3.240;2024-03-25T12:04:16;13.27;;;5.47;;
13797;SDS011;6970;51.340;3.240;2024-03-25T12:09:15;11.98;;;5.53;;
13797;SDS011;6970;51.340;3.240;2024-03-25T12:12:03;13.60;;;5.97;;
13797;SDS011;6970;51.340;3.240;2024-03-25T12:14:29;14.07;;;5.47;;
13797;SDS011;6970;51.340;3.240;2024-03-25T12:16:58;12.98;;;6.00;;
13797;SDS011;6970;51.340;3.240;2024-03-25T12:19:25;16.00;;;6.72;;
13797;SDS011;6970;51.340;3.240;2024-03-25T12:22:00;12.30;;;5.85;;
13797;SDS011;6970;51.340;3.240;2024-03-25T12:24:32;13.30;;;6.18;;
13797;SDS011;6970;51.340;3.240;2024-03-25T12:29:29;13.07;;;6.28;;
13797;SDS011;6970;51.340;3.240;2024-03-25T12:34:27;12.00;;;5.75;;
13797;SDS011;6970;51.340;3.240;2024-03-25T12:37:05;14.45;;;6.60;;
13797;SDS011;6970;51.340;3.240;2024-03-25T12:39:33;12.68;;;5.95;;
13797;SDS011;6970;51.340;3.240;2024-03-25T12:42:03;18.35;;;7.65;;
13797;SDS011;6970;51.340;3.240;2024-03-25T12:44:30;13.40;;;6.35;;
13797;SDS011;6970;51.340;3.240;2024-03-25T12:46:57;17.25;;;6.85;;
13797;SDS011;6970;51.340;3.240;2024-03-25T12:49:25;14.43;;;5.75;;
13797;SDS011;6970;51.340;3.240;2024-03-25T12:51:51;12.40;;;5.57;;
13797;SDS011;6970;51.340;3.240;2024-03-25T12:54:17;10.65;;;5.00;;
13797;SDS011;6970;51.340;3.240;2024-03-25T12:56:44;12.50;;;4.90;;
13797;SDS011;6970;51.340;3.240;2024-03-25T13:01:40;13.20;;;5.35;;
13797;SDS011;6970;51.340;3.240;2024-03-25T13:06:41;11.13;;;4.30;;
13797;SDS011;6970;51.340;3.240;2024-03-25T13:14:36;8.70;;;3.67;;
13797;SDS011;6970;51.340;3.240;2024-03-25T13:17:04;9.68;;;3.28;;
13797;SDS011;6970;51.340;3.240;2024-03-25T13:19:34;8.07;;;3.13;;
13797;SDS011;6970;51.340;3.240;2024-03-25T13:27:01;8.73;;;3.38;;
13797;SDS011;6970;51.340;3.240;2024-03-25T13:29:29;10.27;;;3.50;;
13797;SDS011;6970;51.340;3.240;2024-03-25T13:31:57;8.02;;;3.15;;
13797;SDS011;6970;51.340;3.240;2024-03-25T13:36:56;11.05;;;3.90;;
13797;SDS011;6970;51.340;3.240;2024-03-25T13:39:28;11.10;;;3.47;;
13797;SDS011;6970;51.340;3.240;2024-03-25T13:41:58;12.82;;;3.28;;
13797;SDS011;6970;51.340;3.240;2024-03-25T13:44:24;7.80;;;2.88;;
13797;SDS011;6970;51.340;3.240;2024-03-25T13:46:53;9.43;;;2.88;;
13797;SDS011;6970;51.340;3.240;2024-03-25T13:49:20;7.40;;;3.00;;
13797;SDS011;6970;51.340;3.240;2024-03-25T13:51:48;8.05;;;2.97;;
13797;SDS011;6970;51.340;3.240;2024-03-25T13:54:16;7.53;;;2.55;;
13797;SDS011;6970;51.340;3.240;2024-03-25T13:56:44;7.43;;;2.60;;
13797;SDS011;6970;51.340;3.240;2024-03-25T13:59:12;10.00;;;2.67;;
13797;SDS011;6970;51.340;3.240;2024-03-25T14:01:42;8.75;;;2.92;;
13797;SDS011;6970;51.340;3.240;2024-03-25T14:04:10;8.30;;;3.28;;
13797;SDS011;6970;51.340;3.240;2024-03-25T14:06:38;10.38;;;2.70;;
13797;SDS011;6970;51.340;3.240;2024-03-25T14:09:07;7.93;;;2.78;;
13797;SDS011;6970;51.340;3.240;2024-03-25T14:11:34;6.82;;;2.47;;
13797;SDS011;6970;51.340;3.240;2024-03-25T14:14:01;9.35;;;2.53;;
13797;SDS011;6970;51.340;3.240;2024-03-25T14:16:28;7.85;;;2.53;;
13797;SDS011;6970;51.340;3.240;2024-03-25T14:18:57;7.93;;;3.15;;
13797;SDS011;6970;51.340;3.240;2024-03-25T14:21:25;6.50;;;2.45;;
13797;SDS011;6970;51.340;3.240;2024-03-25T14:23:51;6.95;;;2.50;;
13797;SDS011;6970;51.340;3.240;2024-03-25T14:26:17;9.55;;;3.17;;
13797;SDS011;6970;51.340;3.240;2024-03-25T14:28:46;6.00;;;2.30;;
13797;SDS011;6970;51.340;3.240;2024-03-25T14:31:13;9.02;;;2.60;;
13797;SDS011;6970;51.340;3.240;2024-03-25T14:33:42;7.50;;;2.42;;
13797;SDS011;6970;51.340;3.240;2024-03-25T14:36:09;8.73;;;2.45;;
13797;SDS011;6970;51.340;3.240;2024-03-25T14:38:35;6.38;;;2.30;;
13797;SDS011;6970;51.340;3.240;2024-03-25T14:41:04;7.50;;;2.78;;
13797;SDS011;6970;51.340;3.240;2024-03-25T14:45:59;8.05;;;3.00;;
13797;SDS011;6970;51.340;3.240;2024-03-25T14:48:25;8.18;;;3.47;;
13797;SDS011;6970;51.340;3.240;2024-03-25T14:50:51;7.35;;;2.92;;
13797;SDS011;6970;51.340;3.240;2024-03-25T14:55:47;7.13;;;2.53;;
13797;SDS011;6970;51.340;3.240;2024-03-25T14:58:15;7.75;;;2.60;;
13797;SDS011;6970;51.340;3.240;2024-03-25T15:00:42;8.73;;;2.60;;
13797;SDS011;6970;51.340;3.240;2024-03-25T15:03:11;6.63;;;2.10;;
13797;SDS011;6970;51.340;3.240;2024-03-25T15:05:38;6.78;;;2.72;;
13797;SDS011;6970;51.340;3.240;2024-03-25T15:08:04;7.82;;;2.28;;
13797;SDS011;6970;51.340;3.240;2024-03-25T15:10:35;5.90;;;2.20;;
13797;SDS011;6970;51.340;3.240;2024-03-25T15:13:04;8.35;;;2.85;;
13797;SDS011;6970;51.340;3.240;2024-03-25T15:15:30;7.68;;;2.50;;
13797;SDS011;6970;51.340;3.240;2024-03-25T15:18:04;8.70;;;2.60;;
13797;SDS011;6970;51.340;3.240;2024-03-25T15:20:33;8.82;;;2.38;;
13797;SDS011;6970;51.340;3.240;2024-03-25T15:22:59;6.22;;;2.30;;
13797;SDS011;6970;51.340;3.240;2024-03-25T15:25:26;7.25;;;2.30;;
13797;SDS011;6970;51.340;3.240;2024-03-25T15:27:53;6.07;;;2.25;;
13797;SDS011;6970;51.340;3.240;2024-03-25T15:30:19;8.75;;;2.70;;
13797;SDS011;6970;51.340;3.240;2024-03-25T15:32:47;7.78;;;2.10;;
13797;SDS011;6970;51.340;3.240;2024-03-25T15:35:19;6.68;;;2.20;;
13797;SDS011;6970;51.340;3.240;2024-03-25T15:37:49;7.22;;;2.08;;
13797;SDS011;6970;51.340;3.240;2024-03-25T15:40:16;7.03;;;2.10;;
13797;SDS011;6970;51.340;3.240;2024-03-25T15:42:44;7.03;;;2.17;;
13797;SDS011;6970;51.340;3.240;2024-03-25T15:47:39;7.82;;;2.15;;
13797;SDS011;6970;51.340;3.240;2024-03-25T15:50:11;7.13;;;2.58;;
13797;SDS011;6970;51.340;3.240;2024-03-25T15:52:40;6.45;;;2.10;;
13797;SDS011;6970;51.340;3.240;2024-03-25T15:55:08;9.15;;;1.90;;
13797;SDS011;6970;51.340;3.240;2024-03-25T15:57:36;6.25;;;2.10;;
13797;SDS011;6970;51.340;3.240;2024-03-25T16:02:33;7.70;;;2.10;;
13797;SDS011;6970;51.340;3.240;2024-03-25T16:05:02;7.10;;;2.00;;
13797;SDS011;6970;51.340;3.240;2024-03-25T16:07:32;5.28;;;1.80;;
13797;SDS011;6970;51.340;3.240;2024-03-25T16:12:28;5.90;;;1.83;;
13797;SDS011;6970;51.340;3.240;2024-03-25T16:14:54;6.10;;;1.90;;
13797;SDS011;6970;51.340;3.240;2024-03-25T16:17:21;6.35;;;2.10;;
13797;SDS011;6970;51.340;3.240;2024-03-25T16:19:50;6.68;;;2.08;;
13797;SDS011;6970;51.340;3.240;2024-03-25T16:22:16;7.32;;;2.17;;
13797;SDS011;6970;51.340;3.240;2024-03-25T16:24:43;7.95;;;2.03;;
13797;SDS011;6970;51.340;3.240;2024-03-25T16:27:09;7.90;;;2.55;;
13797;SDS011;6970;51.340;3.240;2024-03-25T16:29:38;8.45;;;2.35;;
13797;SDS011;6970;51.340;3.240;2024-03-25T16:32:10;9.35;;;2.05;;
13797;SDS011;6970;51.340;3.240;2024-03-25T16:37:08;6.78;;;2.20;;
13797;SDS011;6970;51.340;3.240;2024-03-25T16:39:35;10.25;;;2.30;;
13797;SDS011;6970;51.340;3.240;2024-03-25T16:42:06;9.10;;;2.60;;
13797;SDS011;6970;51.340;3.240;2024-03-25T16:44:33;7.22;;;2.22;;
13797;SDS011;6970;51.340;3.240;2024-03-25T16:49:29;10.10;;;2.20;;
13797;SDS011;6970;51.340;3.240;2024-03-25T16:51:56;8.50;;;2.25;;
13797;SDS011;6970;51.340;3.240;2024-03-25T16:56:51;7.40;;;2.13;;
13797;SDS011;6970;51.340;3.240;2024-03-25T16:59:20;9.13;;;2.63;;
13797;SDS011;6970;51.340;3.240;2024-03-25T17:01:49;6.28;;;2.50;;
13797;SDS011;6970;51.340;3.240;2024-03-25T17:04:17;8.95;;;2.58;;
13797;SDS011;6970;51.340;3.240;2024-03-25T17:06:43;7.30;;;2.22;;
13797;SDS011;6970;51.340;3.240;2024-03-25T17:14:12;6.88;;;1.90;;
13797;SDS011;6970;51.340;3.240;2024-03-25T17:16:38;9.63;;;2.20;;
13797;SDS011;6970;51.340;3.240;2024-03-25T17:21:34;7.45;;;2.35;;
13797;SDS011;6970;51.340;3.240;2024-03-25T17:24:01;6.47;;;2.20;;
13797;SDS011;6970;51.340;3.240;2024-03-25T17:28:57;8.52;;;2.38;;
13797;SDS011;6970;51.340;3.240;2024-03-25T17:31:24;5.82;;;2.03;;
13797;SDS011;6970;51.340;3.240;2024-03-25T17:33:50;7.53;;;1.92;;
13797;SDS011;6970;51.340;3.240;2024-03-25T17:36:16;7.95;;;2.20;;
13797;SDS011;6970;51.340;3.240;2024-03-25T17:38:43;7.57;;;2.45;;
13797;SDS011;6970;51.340;3.240;2024-03-25T17:41:12;8.88;;;2.53;;
13797;SDS011;6970;51.340;3.240;2024-03-25T17:43:39;7.00;;;2.30;;
13797;SDS011;6970;51.340;3.240;2024-03-25T17:46:05;7.07;;;2.55;;
13797;SDS011;6970;51.340;3.240;2024-03-25T17:48:32;7.43;;;2.53;;
13797;SDS011;6970;51.340;3.240;2024-03-25T17:53:29;7.82;;;2.70;;
13797;SDS011;6970;51.340;3.240;2024-03-25T17:55:55;6.43;;;2.50;;
13797;SDS011;6970;51.340;3.240;2024-03-25T17:58:22;7.00;;;2.63;;